Date,TemperatureHighF,TemperatureAvgF,TemperatureLowF,DewpointHighF,DewpointAvgF,DewpointLowF,HumidityHigh,HumidityAvg,HumidityLow,PressureMaxIn,PressureMinIn,WindSpeedMaxMPH,WindSpeedAvgMPH,GustSpeedMaxMPH,PrecipitationSumIn
2013-9-1,99.8,89.0,76.4,65.4,63.3,59.3,64,44,29,29.81,29.66,17,2,17,0.00
2013-9-2,96.8,87.2,77.9,64.8,62.0,57.7,57,44,29,29.84,29.67,26,3,27,0.00
2013-9-3,102.3,89.1,76.4,64.5,60.8,50.3,64,41,22,29.81,29.69,21,3,21,0.00
2013-9-4,106.8,92.4,77.5,61.8,53.4,31.6,53,31,8,29.84,29.69,22,3,22,0.00
2013-9-5,107.5,95.4,79.4,55.5,48.5,45.1,31,21,14,29.80,29.67,21,4,21,0.00
2013-9-6,104.7,91.3,79.1,62.8,53.8,47.2,55,30,16,29.83,29.67,32,4,33,0.00
2013-9-7,95.1,84.2,74.2,66.9,61.6,57.6,77,48,31,29.87,29.71,16,2,16,0.00
2013-9-8,86.8,79.5,73.8,69.9,65.8,60.8,83,63,49,29.82,29.67,15,3,16,0.02
2013-9-9,82.0,75.2,71.6,71.6,68.5,65.9,91,80,60,29.76,29.66,17,2,17,0.05
2013-9-10,87.3,77.3,67.6,68.6,63.0,57.4,93,64,37,29.84,29.72,21,4,21,0.00
2013-9-11,90.7,79.1,65.9,63.2,58.6,54.3,78,52,30,29.91,29.78,20,2,25,0.00
2013-9-12,96.0,82.3,67.6,60.6,54.6,45.0,68,42,18,29.82,29.65,10,3,14,0.00
2013-9-13,97.5,85.9,75.0,69.2,62.0,49.3,63,46,31,29.70,29.51,22,4,23,0.04
2013-9-14,99.1,88.6,78.4,63.8,60.0,52.9,59,40,22,29.63,29.51,18,4,18,0.00
2013-9-15,103.5,90.4,79.7,60.3,54.3,43.8,50,32,15,29.68,29.58,16,4,16,0.00
2013-9-16,103.2,92.3,83.1,59.8,56.8,51.1,43,31,19,29.72,29.58,25,6,25,0.00
2013-9-17,104.5,93.1,82.5,60.4,57.1,49.8,46,31,19,29.68,29.50,22,5,22,0.00
2013-9-18,101.3,89.7,77.0,49.7,38.1,20.4,32,18,6,29.65,29.52,16,3,17,0.00
2013-9-19,99.0,84.9,67.6,45.2,39.9,32.3,36,22,11,29.69,29.58,13,2,14,0.00
2013-9-20,100.3,86.0,69.5,54.4,42.8,35.1,35,23,15,29.73,29.61,14,2,14,0.00
2013-9-21,98.4,87.6,74.7,57.2,53.0,48.3,48,32,20,29.75,29.54,14,3,17,0.00
2013-9-22,91.4,80.7,64.8,61.6,49.1,26.1,54,35,19,29.69,29.52,21,5,28,0.00
2013-9-23,90.1,74.1,54.1,30.8,26.1,20.5,35,19,9,29.84,29.69,12,2,12,0.00
2013-9-24,96.0,79.2,62.1,39.4,32.6,25.1,26,19,12,29.90,29.71,16,2,16,0.00
2013-9-25,94.8,81.5,67.3,36.7,29.6,12.9,29,17,6,29.74,29.55,21,6,21,0.00
2013-9-26,93.8,80.6,65.7,47.4,32.2,22.7,27,18,12,29.67,29.53,29,8,29,0.00
2013-9-27,81.3,72.2,61.6,41.7,25.8,14.7,27,18,9,29.89,29.67,23,3,23,0.00
2013-9-28,88.0,72.5,55.2,32.3,24.1,14.8,24,17,9,30.00,29.88,13,2,14,0.00
2013-9-29,90.8,75.1,60.2,38.6,32.2,25.5,31,22,14,30.02,29.88,13,2,13,0.00
2013-9-30,90.8,74.9,59.1,37.2,31.5,26.9,38,22,11,29.92,29.77,12,2,12,0.00